createdAt,value
2022-08-07T00:00:39.780Z,101812.81
2022-08-07T00:03:09.304Z,101812.25
2022-08-07T00:05:37.653Z,101813.22
2022-08-07T00:08:07.648Z,101818.47
2022-08-07T00:10:48.342Z,101817.44
2022-08-07T00:13:26.646Z,101818.78
2022-08-07T00:15:55.163Z,101821.22
2022-08-07T00:18:25.130Z,101832.34
2022-08-07T00:20:57.563Z,101821.84
2022-08-07T00:23:30.188Z,101831.72
2022-08-07T00:26:13.149Z,101832.75
2022-08-07T00:28:55.646Z,101832.03
2022-08-07T00:31:37.428Z,101834.31
2022-08-07T00:34:08.560Z,101834.31
2022-08-07T00:36:38.533Z,101839.72
2022-08-07T00:39:12.802Z,101831.94
2022-08-07T00:41:53.197Z,101833.00
2022-08-07T00:44:22.042Z,101842.66
2022-08-07T00:46:55.438Z,101835.25
2022-08-07T00:49:24.623Z,101833.88
2022-08-07T00:52:11.999Z,101839.13
2022-08-07T00:54:40.635Z,101829.66
2022-08-07T00:57:10.708Z,101834.28
2022-08-07T00:59:40.244Z,101831.75
2022-08-07T01:02:28.771Z,101832.69
2022-08-07T01:04:58.741Z,101830.56
2022-08-07T01:07:29.831Z,101838.72
2022-08-07T01:10:04.862Z,101843.22
2022-08-07T01:12:53.307Z,101838.16
2022-08-07T01:16:00.627Z,101846.13
2022-08-07T01:18:17.500Z,101835.81
2022-08-07T01:20:59.472Z,101841.38
2022-08-07T01:23:35.436Z,101838.00
2022-08-07T01:26:11.953Z,101850.19
2022-08-07T01:28:40.743Z,101844.19
2022-08-07T01:31:15.420Z,101851.97
2022-08-07T01:33:55.191Z,101856.94
2022-08-07T01:36:33.541Z,101858.63
2022-08-07T01:39:10.296Z,101853.28
2022-08-07T01:41:39.051Z,101860.88
2022-08-07T01:44:09.231Z,101850.38
2022-08-07T01:46:40.103Z,101852.81
2022-08-07T01:49:08.258Z,101853.63
2022-08-07T01:52:03.522Z,101861.41
2022-08-07T01:54:36.832Z,101862.56
2022-08-07T01:57:09.020Z,101868.00
2022-08-07T01:59:56.083Z,101878.22
2022-08-07T02:02:32.546Z,101890.81
2022-08-07T02:05:42.972Z,101891.75
2022-08-07T02:08:14.548Z,101893.56
2022-08-07T02:10:54.891Z,101895.22
2022-08-07T02:13:47.104Z,101892.03
2022-08-07T02:16:16.017Z,101899.38
2022-08-07T02:18:47.404Z,101895.22
2022-08-07T02:21:18.359Z,101888.28
2022-08-07T02:23:47.853Z,101891.09
2022-08-07T02:26:32.522Z,101892.97
2022-08-07T02:29:04.236Z,101902.63
2022-08-07T02:31:33.195Z,101888.84
2022-08-07T02:34:03.612Z,101899.44
2022-08-07T02:36:41.250Z,101897.94
2022-08-07T02:39:17.005Z,101903.38
2022-08-07T02:42:03.787Z,101901.69
2022-08-07T02:44:45.785Z,101895.41
2022-08-07T02:47:19.312Z,101900.06
2022-08-07T02:49:58.492Z,101895.69
2022-08-07T02:52:33.433Z,101895.78
2022-08-07T02:55:27.409Z,101892.19
2022-08-07T02:57:59.126Z,101882.66
2022-08-07T03:00:30.511Z,101884.41
2022-08-07T03:02:59.599Z,101894.38
2022-08-07T03:05:37.807Z,101889.38
2022-08-07T03:08:10.368Z,101893.97
2022-08-07T03:10:41.010Z,101894.72
2022-08-07T03:13:20.239Z,101898.34
2022-08-07T03:15:58.421Z,101895.81
2022-08-07T03:18:35.027Z,101895.00
2022-08-07T03:21:08.171Z,101903.78
2022-08-07T03:24:18.462Z,101913.47
2022-08-07T03:26:31.060Z,101923.38
2022-08-07T03:29:03.132Z,101924.09
2022-08-07T03:31:42.688Z,101929.00
2022-08-07T03:34:18.702Z,101928.06
2022-08-07T03:36:53.355Z,101929.75
2022-08-07T03:40:00.045Z,101934.84
2022-08-07T03:42:13.155Z,101937.19
2022-08-07T03:44:47.293Z,101932.72
2022-08-07T03:47:22.788Z,101930.66
2022-08-07T03:49:53.974Z,101926.84
2022-08-07T03:52:26.533Z,101932.31
2022-08-07T03:54:57.142Z,101927.28
2022-08-07T03:58:33.992Z,101926.72
2022-08-07T04:00:20.927Z,101926.81
2022-08-07T04:02:49.537Z,101917.72
2022-08-07T04:05:20.498Z,101916.22
2022-08-07T04:07:57.411Z,101920.00
2022-08-07T04:10:25.681Z,101916.34
2022-08-07T04:12:57.750Z,101918.28
2022-08-07T04:15:28.434Z,101924.31
2022-08-07T04:18:31.056Z,101929.38
2022-08-07T04:20:54.992Z,101929.00
2022-08-07T04:23:25.456Z,101936.50
2022-08-07T04:26:12.071Z,101937.19
2022-08-07T04:28:45.400Z,101939.72
2022-08-07T04:31:19.800Z,101947.69
2022-08-07T04:33:55.072Z,101952.28
2022-08-07T04:36:26.173Z,101950.94
2022-08-07T04:38:54.609Z,101950.97
2022-08-07T04:41:22.811Z,101944.09
2022-08-07T04:44:12.820Z,101946.16
2022-08-07T04:46:59.567Z,101942.88
2022-08-07T04:49:47.388Z,101945.84
2022-08-07T04:52:37.348Z,101947.97
2022-08-07T04:58:23.668Z,101944.97
2022-08-07T04:58:38.884Z,101942.78
2022-08-07T05:01:18.315Z,101946.19
2022-08-07T05:04:07.886Z,101945.88
2022-08-07T05:06:51.743Z,101947.25
2022-08-07T05:09:45.589Z,101950.44
2022-08-07T05:12:27.280Z,101949.19
2022-08-07T05:15:04.087Z,101948.03
2022-08-07T05:17:51.805Z,101948.28
2022-08-07T05:20:27.270Z,101949.25
2022-08-07T05:22:59.587Z,101956.66
2022-08-07T05:26:08.869Z,101959.63
2022-08-07T05:28:22.971Z,101955.84
2022-08-07T05:30:57.797Z,101961.41
2022-08-07T05:33:29.767Z,101961.84
2022-08-07T05:36:00.343Z,101964.72
2022-08-07T05:39:00.580Z,101959.47
2022-08-07T05:41:18.420Z,101964.13
2022-08-07T05:44:08.192Z,101960.97
2022-08-07T05:46:41.577Z,101963.69
2022-08-07T05:49:14.224Z,101964.09
2022-08-07T05:51:46.603Z,101967.69
2022-08-07T05:54:31.113Z,101961.88
2022-08-07T05:57:08.129Z,101966.31
2022-08-07T05:59:55.842Z,101964.72
2022-08-07T06:02:30.722Z,101969.75
2022-08-07T06:05:03.531Z,101973.41
2022-08-07T06:08:14.237Z,101974.47
2022-08-07T06:10:23.517Z,101980.41
2022-08-07T06:12:51.917Z,101976.63
2022-08-07T06:15:21.025Z,101973.47
2022-08-07T06:17:53.398Z,101976.31
2022-08-07T06:20:25.514Z,101986.97
2022-08-07T06:23:46.420Z,101988.25
2022-08-07T06:25:58.668Z,101996.34
2022-08-07T06:28:28.421Z,101995.00
2022-08-07T06:30:58.366Z,101993.13
2022-08-07T06:33:29.704Z,102002.25
2022-08-07T06:36:12.246Z,102000.22
2022-08-07T06:38:51.232Z,101997.63
2022-08-07T06:42:00.455Z,101998.41
2022-08-07T06:44:21.785Z,101990.59
2022-08-07T06:46:53.829Z,101990.53
2022-08-07T06:49:52.245Z,101992.19
2022-08-07T06:52:31.986Z,102003.38
2022-08-07T06:55:31.625Z,102002.78
2022-08-07T06:58:00.391Z,102000.03
2022-08-07T07:00:31.384Z,101985.88
2022-08-07T07:03:01.125Z,101978.41
2022-08-07T07:06:04.807Z,101979.50
2022-08-07T07:08:27.281Z,101975.50
2022-08-07T07:10:58.868Z,101977.91
2022-08-07T07:13:56.498Z,101987.19
2022-08-07T07:16:30.123Z,102001.34
2022-08-07T07:19:11.512Z,102004.50
2022-08-07T07:22:11.882Z,101995.81
2022-08-07T07:24:58.429Z,101997.78
2022-08-07T07:27:58.398Z,101995.94
2022-08-07T07:30:38.031Z,102001.72
2022-08-07T07:33:09.021Z,102001.00
2022-08-07T07:35:54.752Z,102004.72
2022-08-07T07:38:35.883Z,102002.66
2022-08-07T07:41:09.177Z,102005.31
2022-08-07T07:44:13.886Z,102005.53
2022-08-07T07:46:38.577Z,102008.44
2022-08-07T07:50:34.945Z,102002.50
2022-08-07T07:52:12.985Z,101989.13
2022-08-07T07:54:50.724Z,101992.16
2022-08-07T07:57:52.402Z,102003.69
2022-08-07T08:00:15.047Z,101990.94
2022-08-07T08:03:01.223Z,101991.25
2022-08-07T08:05:42.982Z,101991.22
2022-08-07T08:08:34.482Z,101997.94
2022-08-07T08:11:08.596Z,101996.19
2022-08-07T08:13:52.732Z,101992.59
2022-08-07T08:16:29.991Z,101995.16
2022-08-07T08:19:18.099Z,102000.09
2022-08-07T08:22:10.549Z,101998.94
2022-08-07T08:25:09.356Z,102004.03
2022-08-07T08:27:56.508Z,101996.22
2022-08-07T08:30:29.373Z,102002.03
2022-08-07T08:33:02.045Z,102003.34
2022-08-07T08:35:39.056Z,102001.75
2022-08-07T08:38:14.287Z,101999.84
2022-08-07T08:40:50.248Z,101997.28
2022-08-07T08:43:28.496Z,102001.38
2022-08-07T08:46:17.491Z,102003.88
2022-08-07T08:48:59.473Z,102005.91
2022-08-07T08:52:12.487Z,102008.28
2022-08-07T08:54:25.638Z,102004.47
2022-08-07T08:56:55.872Z,102010.75
2022-08-07T08:59:30.263Z,102016.25
2022-08-07T09:02:35.127Z,102001.44
2022-08-07T09:05:26.427Z,102000.47
2022-08-07T09:08:12.539Z,101999.66
2022-08-07T09:11:03.863Z,101996.34
2022-08-07T09:13:40.517Z,101998.16
2022-08-07T09:16:23.337Z,101994.78
2022-08-07T09:19:52.095Z,101996.88
2022-08-07T09:24:29.046Z,101993.56
2022-08-07T09:25:14.652Z,101988.19
2022-08-07T09:28:01.306Z,102001.72
2022-08-07T09:30:38.611Z,101982.84
2022-08-07T09:33:40.687Z,101996.63
2022-08-07T09:36:15.679Z,101995.16
2022-08-07T09:38:54.088Z,101994.66
2022-08-07T09:41:36.383Z,101987.59
2022-08-07T09:44:32.710Z,101983.03
2022-08-07T09:47:49.519Z,101993.09
2022-08-07T09:50:18.501Z,101987.69
2022-08-07T09:52:52.410Z,101985.16
2022-08-07T09:56:03.106Z,101983.41
2022-08-07T09:58:42.156Z,101987.31
2022-08-07T10:01:51.671Z,101983.31
2022-08-07T10:04:32.434Z,101983.34
2022-08-07T10:07:25.708Z,101980.06
2022-08-07T10:10:21.470Z,101978.09
2022-08-07T10:13:29.888Z,101978.81
2022-08-07T10:16:21.812Z,101971.25
2022-08-07T10:19:18.870Z,101974.75
2022-08-07T10:22:14.605Z,101971.47
2022-08-07T10:24:57.407Z,101969.34
2022-08-07T10:27:45.961Z,101966.84
2022-08-07T10:30:19.609Z,101954.94
2022-08-07T10:33:17.670Z,101956.75
2022-08-07T10:35:56.877Z,101957.88
2022-08-07T10:38:48.023Z,101955.91
2022-08-07T10:41:51.260Z,101952.19
2022-08-07T10:44:37.446Z,101952.94
2022-08-07T10:47:27.010Z,101954.06
2022-08-07T10:50:15.256Z,101946.63
2022-08-07T10:52:54.262Z,101945.00
2022-08-07T10:55:37.681Z,101941.47
2022-08-07T10:58:32.000Z,101948.06
2022-08-07T11:01:35.790Z,101946.09
2022-08-07T11:04:34.447Z,101938.81
2022-08-07T11:07:15.023Z,101936.47
2022-08-07T11:10:09.537Z,101942.75
2022-08-07T11:12:49.020Z,101935.47
2022-08-07T11:15:26.390Z,101930.59
2022-08-07T11:18:09.620Z,101930.59
2022-08-07T11:20:44.518Z,101935.63
2022-08-07T11:23:30.576Z,101935.19
2022-08-07T11:26:13.358Z,101936.88
2022-08-07T11:28:53.501Z,101936.88
2022-08-07T11:31:35.291Z,101934.50
2022-08-07T11:34:16.519Z,101928.63
2022-08-07T11:36:57.826Z,101933.13
2022-08-07T11:40:00.450Z,101937.31
2022-08-07T11:42:40.971Z,101938.72
2022-08-07T11:45:20.477Z,101934.22
2022-08-07T11:48:18.336Z,101931.28
2022-08-07T11:51:10.243Z,101925.53
2022-08-07T11:54:17.628Z,101927.78
2022-08-07T11:57:04.426Z,101933.53
2022-08-07T12:00:10.171Z,101924.69
2022-08-07T12:02:53.699Z,101925.69
2022-08-07T12:05:47.490Z,101920.38
2022-08-07T12:08:25.745Z,101911.97
2022-08-07T12:11:20.402Z,101919.38
2022-08-07T12:13:55.139Z,101923.88
2022-08-07T12:16:30.093Z,101918.97
2022-08-07T12:19:07.644Z,101924.69
2022-08-07T12:22:35.657Z,101918.84
2022-08-07T12:24:40.305Z,101918.38
2022-08-07T12:27:16.340Z,101906.63
2022-08-07T12:29:51.743Z,101908.44
2022-08-07T12:32:28.982Z,101911.09
2022-08-07T12:35:01.146Z,101903.94
2022-08-07T12:38:09.542Z,101908.97
2022-08-07T12:40:47.109Z,101900.84
2022-08-07T12:44:02.378Z,101897.50
2022-08-07T12:46:26.488Z,101898.06
2022-08-07T12:49:25.859Z,101889.69
2022-08-07T12:52:13.850Z,101891.19
2022-08-07T12:54:54.606Z,101896.09
2022-08-07T12:57:39.248Z,101887.88
2022-08-07T13:00:30.929Z,101886.72
2022-08-07T13:03:26.816Z,101886.66
2022-08-07T13:06:21.475Z,101891.06
2022-08-07T13:09:00.832Z,101883.91
2022-08-07T13:12:03.322Z,101887.81
2022-08-07T13:15:00.666Z,101889.16
2022-08-07T13:17:41.189Z,101896.09
2022-08-07T13:20:17.212Z,101892.88
2022-08-07T13:22:53.190Z,101890.88
2022-08-07T13:25:30.809Z,101891.97
2022-08-07T13:28:10.768Z,101901.25
2022-08-07T13:30:53.315Z,101901.22
2022-08-07T13:34:34.292Z,101903.13
2022-08-07T13:36:44.470Z,101927.63
2022-08-07T13:39:28.513Z,101945.81
2022-08-07T13:42:21.508Z,101934.91
2022-08-07T13:45:11.798Z,101927.38
2022-08-07T13:48:08.229Z,101926.00
2022-08-07T13:50:45.023Z,101933.78
2022-08-07T13:53:25.135Z,101930.22
2022-08-07T13:56:05.439Z,101925.31
2022-08-07T13:58:57.062Z,101931.78
2022-08-07T14:01:27.444Z,101926.19
2022-08-07T14:04:08.625Z,101929.44
2022-08-07T14:06:41.490Z,101922.78
2022-08-07T14:10:02.783Z,101923.66
2022-08-07T14:12:10.560Z,101923.94
2022-08-07T14:14:44.739Z,101925.91
2022-08-07T14:18:12.530Z,101927.22
2022-08-07T14:20:43.639Z,101923.91
2022-08-07T14:23:08.664Z,101913.44
2022-08-07T14:25:48.047Z,101912.19
2022-08-07T14:28:19.322Z,101907.34
2022-08-07T14:30:52.150Z,101900.06
2022-08-07T14:33:23.442Z,101898.94
2022-08-07T14:35:56.711Z,101907.50
2022-08-07T14:38:33.382Z,101900.63
2022-08-07T14:41:04.137Z,101881.63
2022-08-07T14:46:31.218Z,101891.28
2022-08-07T14:54:43.355Z,101885.25
2022-08-07T14:57:18.716Z,101888.63
2022-08-07T15:00:04.588Z,101886.38
2022-08-07T15:02:37.282Z,101889.16
2022-08-07T15:05:20.269Z,101880.22
2022-08-07T15:07:52.932Z,101878.97
2022-08-07T15:10:26.267Z,101880.22
2022-08-07T15:12:59.197Z,101875.88
2022-08-07T15:18:35.941Z,101864.84
2022-08-07T15:26:52.743Z,101864.53
2022-08-07T15:30:09.384Z,101863.56
2022-08-07T15:32:12.691Z,101861.88
2022-08-07T15:34:50.626Z,101862.59
2022-08-07T15:37:29.200Z,101868.88
2022-08-07T15:40:34.585Z,101862.88
2022-08-07T15:46:37.599Z,101865.94
2022-08-07T15:49:15.097Z,101860.88
2022-08-07T15:54:34.653Z,101857.81
2022-08-07T15:57:40.338Z,101859.50
2022-08-07T16:00:06.407Z,101852.50
2022-08-07T16:02:41.663Z,101851.09
2022-08-07T16:05:18.101Z,101850.44
2022-08-07T16:08:32.056Z,101851.97
2022-08-07T16:10:42.939Z,101855.28
2022-08-07T16:13:59.620Z,101850.56
2022-08-07T16:17:15.211Z,101849.19
2022-08-07T16:20:07.264Z,101849.47
2022-08-07T16:22:57.490Z,101855.59
2022-08-07T16:25:55.273Z,101842.31
2022-08-07T16:29:18.753Z,101847.09
2022-08-07T16:31:51.165Z,101851.69
2022-08-07T16:34:38.286Z,101842.59
2022-08-07T16:38:03.933Z,101842.44
2022-08-07T16:41:01.835Z,101848.06
2022-08-07T16:44:05.759Z,101846.66
2022-08-07T16:47:16.608Z,101849.03
2022-08-07T16:50:35.925Z,101851.78
2022-08-07T16:54:03.164Z,101847.59
2022-08-07T16:56:19.111Z,101848.28
2022-08-07T16:59:10.264Z,101860.13
2022-08-07T17:01:49.409Z,101853.84
2022-08-07T17:04:32.149Z,101852.69
2022-08-07T17:07:10.927Z,101855.06
2022-08-07T17:10:06.314Z,101853.53
2022-08-07T17:12:44.430Z,101855.00
2022-08-07T17:15:22.115Z,101866.28
2022-08-07T17:18:18.433Z,101864.28
2022-08-07T17:20:47.200Z,101857.84
2022-08-07T17:23:41.754Z,101858.94
2022-08-07T17:26:22.517Z,101864.38
2022-08-07T17:29:08.419Z,101869.81
2022-08-07T17:32:02.892Z,101868.00
2022-08-07T17:34:57.209Z,101861.75
2022-08-07T17:38:05.462Z,101862.69
2022-08-07T17:40:30.659Z,101859.47
2022-08-07T17:43:18.084Z,101865.06
2022-08-07T17:45:55.635Z,101874.25
2022-08-07T17:48:31.142Z,101871.00
2022-08-07T17:51:07.183Z,101874.06
2022-08-07T17:54:02.309Z,101875.44
2022-08-07T17:56:49.506Z,101870.78
2022-08-07T17:59:25.068Z,101873.09
2022-08-07T18:02:02.486Z,101877.13
2022-08-07T18:04:35.415Z,101879.31
2022-08-07T18:07:20.219Z,101877.16
2022-08-07T18:10:06.762Z,101882.84
2022-08-07T18:13:09.973Z,101883.38
2022-08-07T18:15:53.606Z,101882.66
2022-08-07T18:19:02.608Z,101880.97
2022-08-07T18:21:42.400Z,101874.25
2022-08-07T18:24:33.376Z,101886.78
2022-08-07T18:27:38.156Z,101890.53
2022-08-07T18:30:32.371Z,101894.97
2022-08-07T18:33:37.647Z,101890.66
2022-08-07T18:36:17.819Z,101892.44
2022-08-07T18:40:09.059Z,101899.59
2022-08-07T18:42:13.099Z,101899.59
2022-08-07T18:45:44.033Z,101895.44
2022-08-07T18:48:01.031Z,101898.34
2022-08-07T18:50:49.487Z,101909.19
2022-08-07T18:53:39.373Z,101901.63
2022-08-07T18:56:15.951Z,101900.31
2022-08-07T18:59:00.635Z,101909.00
2022-08-07T19:02:33.160Z,101917.38
2022-08-07T19:04:54.597Z,101915.47
2022-08-07T19:07:34.838Z,101916.44
2022-08-07T19:10:10.953Z,101920.28
2022-08-07T19:12:54.696Z,101919.72
2022-08-07T19:16:03.792Z,101913.56
2022-08-07T19:18:34.100Z,101929.00
2022-08-07T19:21:42.757Z,101924.09
2022-08-07T19:24:02.465Z,101926.72
2022-08-07T19:27:08.938Z,101925.88
2022-08-07T19:31:00.404Z,101935.75
2022-08-07T19:32:25.868Z,101933.34
2022-08-07T19:35:00.772Z,101936.97
2022-08-07T19:37:55.555Z,101932.53
2022-08-07T19:40:31.022Z,101935.28
2022-08-07T19:43:02.852Z,101934.94
2022-08-07T19:46:09.872Z,101937.09
2022-08-07T19:48:31.584Z,101932.78
2022-08-07T19:51:19.486Z,101943.72
2022-08-07T19:54:44.604Z,101937.81
2022-08-07T19:58:00.784Z,101937.25
2022-08-07T19:59:40.754Z,101941.09
2022-08-07T20:02:19.795Z,101949.97
2022-08-07T20:04:51.999Z,101947.00
2022-08-07T20:07:45.831Z,101945.41
2022-08-07T20:10:35.178Z,101942.19
2022-08-07T20:13:22.456Z,101951.06
2022-08-07T20:15:53.959Z,101944.84
2022-08-07T20:18:32.394Z,101953.72
2022-08-07T20:21:03.338Z,101955.53
2022-08-07T20:23:52.012Z,101956.72
2022-08-07T20:26:32.121Z,101956.50
2022-08-07T20:29:10.253Z,101962.25
2022-08-07T20:31:46.399Z,101954.56
2022-08-07T20:34:29.598Z,101954.75
2022-08-07T20:37:10.219Z,101958.34
2022-08-07T20:40:03.095Z,101956.91
2022-08-07T20:42:31.239Z,101954.50
2022-08-07T20:45:04.540Z,101956.19
2022-08-07T20:47:58.345Z,101959.16
2022-08-07T20:50:30.354Z,101957.97
2022-08-07T20:52:59.494Z,101954.59
2022-08-07T20:55:28.789Z,101963.72
2022-08-07T20:58:03.975Z,101969.47
2022-08-07T21:00:43.408Z,101968.59
2022-08-07T21:03:15.318Z,101977.72
2022-08-07T21:05:55.698Z,101976.03
2022-08-07T21:08:36.442Z,101977.97
2022-08-07T21:11:10.978Z,101979.97
2022-08-07T21:14:16.461Z,101979.97
2022-08-07T21:16:56.576Z,101981.75
2022-08-07T21:19:32.088Z,101978.88
2022-08-07T21:22:19.326Z,101978.88
2022-08-07T21:24:51.661Z,101978.41
2022-08-07T21:27:27.865Z,101982.28
2022-08-07T21:30:15.437Z,101991.06
2022-08-07T21:32:52.966Z,101985.88
2022-08-07T21:36:06.161Z,101989.34
2022-08-07T21:38:27.937Z,101987.66
2022-08-07T21:41:06.930Z,101986.81
2022-08-07T21:43:55.482Z,101988.53
2022-08-07T21:46:33.157Z,101983.34
2022-08-07T21:49:14.662Z,101986.94
2022-08-07T21:51:55.908Z,101996.69
2022-08-07T21:54:30.987Z,101994.03
2022-08-07T21:57:39.676Z,101989.56
2022-08-07T22:00:23.198Z,101994.03
2022-08-07T22:03:03.611Z,101988.00
2022-08-07T22:05:46.605Z,101994.28
2022-08-07T22:08:21.422Z,101985.50
2022-08-07T22:10:55.175Z,101987.41
2022-08-07T22:13:50.437Z,101991.97
2022-08-07T22:16:38.901Z,101986.91
2022-08-07T22:19:09.406Z,101996.84
2022-08-07T22:22:04.864Z,101992.66
2022-08-07T22:24:36.338Z,101999.81
2022-08-07T22:27:13.655Z,101988.03
2022-08-07T22:29:50.330Z,101994.50
2022-08-07T22:32:33.300Z,101998.94
2022-08-07T22:35:04.760Z,102008.16
2022-08-07T22:38:02.906Z,102003.91
2022-08-07T22:40:40.955Z,102004.13
2022-08-07T22:43:11.432Z,102010.50
2022-08-07T22:46:21.127Z,102006.28
2022-08-07T22:49:10.990Z,102016.09
2022-08-07T22:52:14.076Z,102009.25
2022-08-07T22:55:34.347Z,102006.81
2022-08-07T22:58:39.612Z,102008.00
2022-08-07T23:01:30.523Z,102016.72
2022-08-07T23:04:32.122Z,102016.84
2022-08-07T23:07:28.398Z,102012.00
2022-08-07T23:10:37.678Z,102014.97
2022-08-07T23:13:29.344Z,102013.41
2022-08-07T23:16:10.954Z,102013.84
2022-08-07T23:19:17.279Z,102019.34
2022-08-07T23:22:17.036Z,102015.13
2022-08-07T23:24:58.934Z,102017.03
2022-08-07T23:28:21.611Z,102025.34
2022-08-07T23:31:05.729Z,102022.66
2022-08-07T23:34:33.551Z,102024.31
2022-08-07T23:36:54.666Z,102025.06
2022-08-07T23:39:55.556Z,102021.78
2022-08-07T23:42:31.317Z,102025.59
2022-08-07T23:46:01.841Z,102019.47
2022-08-07T23:48:25.198Z,102025.91
2022-08-07T23:50:58.096Z,102026.97
2022-08-07T23:53:51.515Z,102025.50
2022-08-07T23:56:27.933Z,102023.06
2022-08-07T23:59:10.166Z,102028.44
